Sharon Center, Ohio
Current Conditions -  °F | °C
As of 8:54 AM on Monday 24 Nov 2014 (Local Time) from KAKR Reporting Station
Broken Clouds Broken Clouds  
Wind Chill: 61°   Ceiling: 2400
Heat Index: 61°   Visibility: 10mi
Dew Point: 53°   Wind: 20mph
Humidity: 75%   Direction: 190°S
Pressure: 29.32"   Gusts: 35mph
Location:  41.1°N, 81.74°W
Report Text: KAKR 241354Z AUTO 19017G30KT 10SM BKN024 BKN031 16/12 A2932 RMK AO2 PK WND 20030/1349 SLP924 T01610117
Loading
Personal Weather Stations






























Interactive Weather Map New forecast layout! Learn more

10-Day Weather Forecast

Advertisements
Track Severe Weather on mobile